Time;durP1;ratioP1;P1;durP2;ratioP2;P2;SDS_P1;SDS_P2;PMS_P1;PMS_P2;Temp;Humidity;BMP_temperature;BMP_pressure;BME280_temperature;BME280_humidity;BME280_pressure;Samples;Min_cycle;Max_cycle;Signal;HPM_P1;HPM_P2
2023/02/24 14:46:24;;;;;;;13.93;2.50;;;;;;;7.81;100.00;100732.53;5062660;28;20398;-53
2023/02/24 14:48:54;;;;;;;12.93;2.55;;;;;;;7.88;100.00;100741.09;5064344;28;20159;-55
2023/02/24 14:51:31;;;;;;;18.25;2.38;;;;;;;8.06;100.00;100748.53;5063750;28;20666;-55
2023/02/24 14:54:01;;;;;;;16.40;2.50;;;;;;;8.70;100.00;100744.28;5061314;28;20029;-56
2023/02/24 14:56:27;;;;;;;;;;;;;;;10.14;100.00;100733.84;5063176;28;20577;-53
2023/02/24 14:58:57;;;;;;;7.82;1.75;;;;;;;11.72;100.00;100723.72;5064469;28;19913;-57
2023/02/24 15:01:38;;;;;;;8.27;1.70;;;;;;;12.77;92.88;100730.78;5063298;28;20455;-58
2023/02/24 15:04:23;;;;;;;12.55;1.95;;;;;;;13.23;89.25;100741.03;5063791;28;20466;-57
2023/02/24 15:06:49;;;;;;;6.43;1.50;;;;;;;12.40;87.07;100737.69;5063415;28;20024;-52
2023/02/24 15:09:18;;;;;;;8.07;1.65;;;;;;;11.94;89.97;100734.25;5055760;28;20036;-59
2023/02/24 15:11:43;;;;;;;4.82;1.30;;;;;;;11.70;91.60;100730.81;5044038;28;20040;-55
2023/02/24 15:14:27;;;;;;;7.82;1.67;;;;;;;11.73;91.41;100723.66;5057151;28;20028;-56
2023/02/24 15:17:02;;;;;;;4.85;1.35;;;;;;;12.28;89.96;100724.06;5063393;28;20052;-54
2023/02/24 15:19:36;;;;;;;9.55;1.60;;;;;;;13.56;83.46;100721.00;5061154;28;20099;-56
2023/02/24 15:22:21;;;;;;;5.18;1.42;;;;;;;14.40;77.76;100716.84;5060752;28;20025;-54
2023/02/24 15:24:46;;;;;;;5.78;1.60;;;;;;;14.95;74.81;100723.75;5061731;28;20028;-53
2023/02/24 15:27:11;;;;;;;7.68;1.55;;;;;;;14.71;75.44;100706.38;5062597;28;20079;-56
2023/02/24 15:29:37;;;;;;;10.43;1.65;;;;;;;13.57;80.49;100714.75;5055877;28;20023;-54
2023/02/24 15:32:05;;;;;;;11.88;1.95;;;;;;;12.84;85.04;100723.41;5047939;28;20553;-58
2023/02/24 15:34:35;;;;;;;7.40;1.90;;;;;;;12.18;89.02;100725.38;5061717;28;20410;-54
2023/02/24 15:37:03;;;;;;;5.45;1.17;;;;;;;11.21;93.60;100737.13;5047011;28;20055;-57
2023/02/24 15:39:30;;;;;;;14.70;2.25;;;;;;;10.66;94.99;100725.06;5063099;28;20491;-57
2023/02/24 15:42:14;;;;;;;6.38;1.90;;;;;;;10.36;98.42;100713.75;5061738;28;20025;-57
2023/02/24 15:44:59;;;;;;;9.73;1.70;;;;;;;9.85;100.00;100729.50;5062127;28;20090;-56
2023/02/24 15:47:31;;;;;;;13.32;1.73;;;;;;;9.27;100.00;100727.78;5061247;28;20039;-56
2023/02/24 15:49:57;;;;;;;9.25;1.77;;;;;;;8.90;100.00;100719.22;5062214;28;20044;-58
2023/02/24 15:52:25;;;;;;;6.82;1.65;;;;;;;8.78;100.00;100728.31;5061404;28;20384;-59
2023/02/24 15:54:51;;;;;;;9.77;2.17;;;;;;;8.68;100.00;100719.84;5050124;28;20103;-57
2023/02/24 15:57:17;;;;;;;8.73;2.00;;;;;;;8.64;100.00;100717.34;5052941;28;20410;-54
2023/02/24 15:59:43;;;;;;;8.57;1.45;;;;;;;8.78;100.00;100720.44;5047732;28;20082;-59
2023/02/24 16:02:14;;;;;;;10.73;1.80;;;;;;;9.36;100.00;100716.13;5048411;28;20028;-54
2023/02/24 16:04:40;;;;;;;9.85;2.00;;;;;;;9.59;100.00;100712.78;5048874;28;20498;-56
2023/02/24 16:07:05;;;;;;;10.55;1.98;;;;;;;9.82;100.00;100712.97;5049125;28;20021;-56
2023/02/24 16:09:35;;;;;;;12.10;2.78;;;;;;;9.72;100.00;100712.38;5047582;28;20036;-55
2023/02/24 16:12:03;;;;;;;12.13;2.10;;;;;;;9.37;100.00;100724.88;5049183;28;20029;-54
2023/02/24 16:14:29;;;;;;;16.25;3.03;;;;;;;9.13;100.00;100722.09;5035452;28;20121;-59
2023/02/24 16:16:54;;;;;;;14.50;2.00;;;;;;;8.68;100.00;100729.50;5048097;28;20029;-57
2023/02/24 16:19:19;;;;;;;17.77;2.83;;;;;;;8.62;100.00;100725.28;5048696;28;20040;-56
2023/02/24 16:21:45;;;;;;;11.00;2.28;;;;;;;8.45;100.00;100726.56;5048616;28;20039;-54
2023/02/24 16:24:11;;;;;;;15.38;2.85;;;;;;;8.34;100.00;100729.47;5048470;28;20028;-53
2023/02/24 16:26:37;;;;;;;11.10;2.15;;;;;;;8.22;100.00;100728.00;5048634;28;20124;-55
2023/02/24 16:29:03;;;;;;;15.48;2.40;;;;;;;8.17;100.00;100719.41;5049129;28;20112;-56
2023/02/24 16:31:29;;;;;;;12.88;2.58;;;;;;;8.04;100.00;100734.59;5048652;28;20156;-59
2023/02/24 16:33:54;;;;;;;17.10;3.10;;;;;;;8.05;100.00;100730.22;5048262;28;20045;-57
2023/02/24 16:36:21;;;;;;;17.27;2.80;;;;;;;7.82;100.00;100721.13;5049074;28;20047;-55
2023/02/24 16:38:49;;;;;;;22.65;2.92;;;;;;;7.68;100.00;100731.97;5047629;28;20025;-56
2023/02/24 16:41:15;;;;;;;13.70;2.97;;;;;;;7.44;100.00;100744.75;5049538;28;20055;-54
2023/02/24 16:43:40;;;;;;;14.18;2.80;;;;;;;7.33;100.00;100742.38;5047407;28;20379;-57
2023/02/24 16:46:13;;;;;;;12.18;2.75;;;;;;;7.28;100.00;100724.13;5046902;28;20044;-55
2023/02/24 16:48:39;;;;;;;13.85;3.53;;;;;;;7.25;100.00;100729.41;5048768;28;20469;-56
2023/02/24 16:51:05;;;;;;;19.38;3.42;;;;;;;7.20;100.00;100741.78;5047768;28;20132;-52
2023/02/24 16:53:31;;;;;;;17.17;2.70;;;;;;;7.12;100.00;100738.44;5044264;28;20120;-59
2023/02/24 16:55:56;;;;;;;16.70;3.67;;;;;;;7.13;100.00;100734.94;5038903;28;20112;-53
2023/02/24 16:58:22;;;;;;;21.17;3.60;;;;;;;7.03;100.00;100748.22;5038362;28;20029;-60
2023/02/24 17:00:49;;;;;;;20.42;3.28;;;;;;;6.94;100.00;100745.78;5048034;28;20114;-51
2023/02/24 17:03:18;;;;;;;21.88;2.60;;;;;;;6.90;100.00;100752.00;5047371;28;20032;-58
2023/02/24 17:05:43;;;;;;;14.48;2.72;;;;;;;6.66;100.00;100752.44;5048070;28;20029;-50
2023/02/24 17:08:09;;;;;;;13.93;2.35;;;;;;;6.65;100.00;100752.47;5047119;28;20025;-58
2023/02/24 17:10:37;;;;;;;21.95;3.20;;;;;;;6.68;100.00;100760.25;5047989;28;20495;-57
2023/02/24 17:13:04;;;;;;;19.58;3.15;;;;;;;6.51;100.00;100743.13;5047306;28;20566;-55
2023/02/24 17:15:29;;;;;;;20.27;3.33;;;;;;;6.72;100.00;100748.84;5043479;28;20017;-57
2023/02/24 17:17:54;;;;;;;16.90;2.65;;;;;;;6.83;100.00;100753.84;5038156;28;20028;-58
2023/02/24 17:20:20;;;;;;;12.43;2.97;;;;;;;6.78;100.00;100751.34;5044074;28;20704;-56
2023/02/24 17:22:46;;;;;;;26.15;3.47;;;;;;;6.75;100.00;100754.03;5037604;28;20543;-54
2023/02/24 17:25:15;;;;;;;25.80;4.68;;;;;;;6.62;100.00;100760.38;5046805;28;20025;-56
2023/02/24 17:27:41;;;;;;;22.17;3.53;;;;;;;6.59;100.00;100753.44;5046806;28;20442;-52
2023/02/24 17:30:06;;;;;;;21.60;3.80;;;;;;;6.54;100.00;100761.38;5048607;28;20033;-56
2023/02/24 17:32:32;;;;;;;23.67;3.58;;;;;;;6.53;100.00;100762.25;5046847;28;20144;-55
2023/02/24 17:34:58;;;;;;;24.90;3.90;;;;;;;6.51;100.00;100769.31;5047974;28;20060;-56
2023/02/24 17:37:23;;;;;;;18.58;3.00;;;;;;;6.41;100.00;100773.81;5047800;28;20021;-59
2023/02/24 17:39:49;;;;;;;18.38;3.55;;;;;;;6.52;100.00;100762.28;5048416;28;20039;-55
2023/02/24 17:42:14;;;;;;;20.15;4.05;;;;;;;6.54;100.00;100774.44;5048043;28;20044;-53
2023/02/24 17:44:39;;;;;;;21.42;3.60;;;;;;;6.65;100.00;100771.66;5046104;28;20049;-58
2023/02/24 17:47:07;;;;;;;17.88;2.88;;;;;;;6.50;100.00;100785.88;5046637;28;20021;-60
2023/02/24 17:49:33;;;;;;;19.38;3.03;;;;;;;6.56;100.00;100783.16;5047349;28;20074;-59
2023/02/24 17:51:58;;;;;;;24.35;3.58;;;;;;;6.45;100.00;100791.19;5044084;28;20033;-54
2023/02/24 17:54:23;;;;;;;18.08;3.50;;;;;;;6.53;100.00;100782.38;5028633;28;20588;-54
2023/02/24 17:56:49;;;;;;;18.05;3.67;;;;;;;6.56;100.00;100783.16;5048578;28;20424;-55
2023/02/24 17:59:14;;;;;;;24.80;4.22;;;;;;;6.63;100.00;100793.53;5047653;28;20388;-57
2023/02/24 18:01:39;;;;;;;20.10;3.08;;;;;;;6.54;100.00;100811.09;5045523;28;20064;-56
2023/02/24 18:04:05;;;;;;;20.40;3.53;;;;;;;6.45;100.00;100809.50;5047348;28;20029;-57
2023/02/24 18:06:30;;;;;;;23.67;2.92;;;;;;;6.46;100.00;100818.25;5047294;28;20028;-54
2023/02/24 18:08:55;;;;;;;21.00;3.63;;;;;;;6.46;100.00;100823.47;5047149;28;20040;-57
2023/02/24 18:11:21;;;;;;;13.73;2.08;;;;;;;6.40;100.00;100811.38;5047832;28;20033;-60
2023/02/24 18:13:49;;;;;;;29.25;3.22;;;;;;;6.37;100.00;100807.91;5047480;28;20162;-55
2023/02/24 18:16:15;;;;;;;18.17;2.83;;;;;;;6.44;100.00;100814.78;5031974;28;20037;-57
2023/02/24 18:18:40;;;;;;;14.48;2.78;;;;;;;6.37;100.00;100808.78;5025500;28;20056;-57
2023/02/24 18:21:07;;;;;;;17.27;2.83;;;;;;;6.33;100.00;100807.13;5026848;28;20297;-57
2023/02/24 18:23:34;;;;;;;17.40;3.13;;;;;;;6.34;100.00;100811.47;5034126;28;20025;-59
2023/02/24 18:26:03;;;;;;;13.10;3.20;;;;;;;6.38;100.00;100812.28;5031145;28;20431;-57
2023/02/24 18:28:28;;;;;;;;;;;;;;;6.52;100.00;100809.41;5027217;28;20040;-54
2023/02/24 18:30:54;;;;;;;15.32;3.60;;;;;;;6.34;100.00;100814.06;5030300;28;19912;-56
2023/02/24 18:33:19;;;;;;;18.20;3.35;;;;;;;6.32;100.00;100827.19;5047579;28;20484;-56
2023/02/24 18:35:44;;;;;;;19.45;3.42;;;;;;;6.41;100.00;100825.31;5045987;28;20017;-58
2023/02/24 18:38:10;;;;;;;23.13;3.92;;;;;;;6.10;100.00;100836.25;5033354;28;20029;-56
2023/02/24 18:40:36;;;;;;;21.30;3.47;;;;;;;6.11;100.00;100838.00;5046251;28;20025;-57
2023/02/24 18:43:01;;;;;;;23.30;5.78;;;;;;;5.98;100.00;100840.75;5046514;28;20048;-57
2023/02/24 18:45:26;;;;;;;22.40;4.13;;;;;;;5.81;100.00;100831.41;5045692;28;20135;-56
2023/02/24 18:47:52;;;;;;;17.05;3.95;;;;;;;5.83;100.00;100834.00;5031549;28;20118;-58
2023/02/24 18:50:17;;;;;;;24.63;3.90;;;;;;;5.84;100.00;100829.66;5047107;28;20025;-54
2023/02/24 18:52:43;;;;;;;19.15;3.90;;;;;;;5.67;100.00;100828.13;5046486;28;20074;-55
2023/02/24 18:55:09;;;;;;;18.13;4.32;;;;;;;5.63;100.00;100829.91;5046433;28;20028;-55
2023/02/24 18:57:35;;;;;;;18.92;3.53;;;;;;;5.52;100.00;100837.91;5046482;28;20671;-56
2023/02/24 19:00:04;;;;;;;21.85;3.85;;;;;;;5.53;100.00;100830.91;5046760;28;20116;-53
2023/02/24 19:02:30;;;;;;;16.85;3.15;;;;;;;5.60;100.00;100826.47;5045610;28;20590;-55
2023/02/24 19:04:56;;;;;;;25.42;3.92;;;;;;;5.51;100.00;100841.38;5045410;28;20029;-55
2023/02/24 19:07:21;;;;;;;28.27;4.00;;;;;;;5.56;100.00;100846.56;5046677;28;20025;-61
2023/02/24 19:09:48;;;;;;;25.90;3.80;;;;;;;5.61;100.00;100839.53;5046755;28;20025;-58
2023/02/24 19:12:14;;;;;;;19.55;4.15;;;;;;;5.66;100.00;100852.56;5046443;28;20499;-53
2023/02/24 19:14:39;;;;;;;21.52;4.00;;;;;;;5.70;100.00;100859.47;5046271;28;20017;-55
2023/02/24 19:17:05;;;;;;;17.63;4.28;;;;;;;5.75;100.00;100847.19;5045587;28;20079;-55
2023/02/24 19:19:30;;;;;;;30.27;5.75;;;;;;;5.74;100.00;100855.03;5046651;28;20041;-54
2023/02/24 19:21:56;;;;;;;20.30;4.25;;;;;;;5.69;100.00;100858.59;5046063;28;20029;-53
2023/02/24 19:24:21;;;;;;;16.80;4.05;;;;;;;5.76;100.00;100855.91;5046082;28;20021;-60
2023/02/24 19:26:47;;;;;;;29.60;5.28;;;;;;;5.80;100.00;100855.84;5034712;28;20025;-55
2023/02/24 19:29:13;;;;;;;23.65;3.28;;;;;;;5.86;100.00;100851.38;5026215;28;20523;-56
2023/02/24 19:31:38;;;;;;;20.40;3.63;;;;;;;5.76;100.00;100845.44;5028396;28;20025;-57
2023/02/24 19:34:06;;;;;;;17.90;3.33;;;;;;;5.79;100.00;100843.66;5039919;28;20025;-55
2023/02/24 19:36:33;;;;;;;19.75;3.50;;;;;;;5.73;100.00;100838.50;5049867;28;20017;-55
2023/02/24 19:38:58;;;;;;;18.27;3.95;;;;;;;5.80;100.00;100837.53;5049735;28;20104;-56
2023/02/24 19:41:24;;;;;;;17.10;3.20;;;;;;;5.85;100.00;100841.81;5049319;28;20144;-57
2023/02/24 19:43:49;;;;;;;18.40;3.97;;;;;;;5.80;100.00;100850.59;5049564;28;20025;-57
2023/02/24 19:46:15;;;;;;;21.40;4.05;;;;;;;5.76;100.00;100851.53;5048183;28;20120;-55
2023/02/24 19:48:40;;;;;;;21.25;3.72;;;;;;;5.71;100.00;100853.34;5049301;28;20108;-55
2023/02/24 19:51:15;;;;;;;13.82;3.00;;;;;;;5.67;100.00;100849.91;5036648;28;20115;-59
2023/02/24 19:53:40;;;;;;;21.52;3.50;;;;;;;5.57;100.00;100854.38;5049596;28;20025;-57
2023/02/24 19:56:06;;;;;;;15.85;3.20;;;;;;;5.54;100.00;100858.81;5037021;28;20021;-57
2023/02/24 19:58:32;;;;;;;17.35;3.15;;;;;;;5.50;100.00;100857.97;5049762;28;20032;-56
2023/02/24 20:01:15;;;;;;;14.75;2.97;;;;;;;5.55;100.00;100861.41;5048181;28;20021;-51
2023/02/24 20:03:41;;;;;;;23.35;3.60;;;;;;;5.53;100.00;100868.38;5049343;28;20475;-59
2023/02/24 20:06:22;;;;;;;22.95;3.92;;;;;;;5.56;100.00;100857.00;5049814;28;20037;-58
2023/02/24 20:08:47;;;;;;;26.15;3.10;;;;;;;5.69;100.00;100862.97;5049625;28;20131;-54
2023/02/24 20:11:13;;;;;;;21.17;3.47;;;;;;;5.72;100.00;100869.91;5049692;28;20116;-55
2023/02/24 20:13:38;;;;;;;20.77;3.97;;;;;;;5.65;100.00;100883.03;5049394;28;20482;-54
2023/02/24 20:16:16;;;;;;;10.80;2.70;;;;;;;5.60;100.00;100882.22;5048173;28;20021;-52
2023/02/24 20:18:41;;;;;;;15.40;2.58;;;;;;;5.57;100.00;100885.75;5049332;28;20065;-55
2023/02/24 20:21:08;;;;;;;18.35;2.45;;;;;;;5.82;100.00;100879.34;5049450;28;20107;-56
2023/02/24 20:23:34;;;;;;;11.38;3.00;;;;;;;5.82;100.00;100881.97;5048679;28;20029;-59
2023/02/24 20:26:00;;;;;;;24.88;3.25;;;;;;;5.87;100.00;100882.75;5049316;28;20083;-55
2023/02/24 20:28:26;;;;;;;18.02;2.80;;;;;;;5.73;100.00;100877.72;5049393;28;20051;-57
2023/02/24 20:30:53;;;;;;;14.85;2.40;;;;;;;5.76;100.00;100888.16;5048229;28;20443;-60
2023/02/24 20:33:18;;;;;;;8.57;2.15;;;;;;;5.64;100.00;100883.06;5032690;28;20021;-58
2023/02/24 20:35:44;;;;;;;16.83;2.38;;;;;;;5.54;100.00;100888.41;5028524;28;20049;-55
2023/02/24 20:38:10;;;;;;;11.93;2.47;;;;;;;5.61;100.00;100890.94;5027372;28;20392;-60
2023/02/24 20:40:35;;;;;;;16.73;2.50;;;;;;;5.54;100.00;100895.41;5031429;28;20108;-56
2023/02/24 20:43:05;;;;;;;15.07;2.70;;;;;;;5.56;100.00;100896.22;5041003;28;20076;-56
2023/02/24 20:45:32;;;;;;;13.30;3.38;;;;;;;5.60;100.00;100900.53;5048134;28;20056;-54
2023/02/24 20:47:57;;;;;;;13.32;2.75;;;;;;;5.64;100.00;100901.38;5048381;28;20032;-55
2023/02/24 20:50:22;;;;;;;23.00;3.28;;;;;;;5.68;100.00;100903.06;5048726;28;20411;-56
2023/02/24 20:52:48;;;;;;;11.82;2.05;;;;;;;5.71;100.00;100899.53;5049045;28;20029;-57
2023/02/24 20:55:13;;;;;;;12.25;2.55;;;;;;;5.75;100.00;100909.94;5042293;28;20083;-52
2023/02/24 20:57:39;;;;;;;14.55;3.00;;;;;;;5.64;100.00;100902.25;5041177;28;20033;-55
2023/02/24 21:00:06;;;;;;;15.38;2.80;;;;;;;5.69;100.00;100904.81;5046366;28;20013;-57
2023/02/24 21:02:33;;;;;;;22.63;4.68;;;;;;;5.66;100.00;100904.84;5048197;28;20057;-56
2023/02/24 21:04:58;;;;;;;16.63;3.30;;;;;;;5.81;100.00;100899.41;5044709;28;20067;-55
2023/02/24 21:07:24;;;;;;;22.98;3.78;;;;;;;5.85;100.00;100899.34;5039098;28;20021;-53
2023/02/24 21:09:50;;;;;;;19.85;2.72;;;;;;;5.90;100.00;100892.34;5048257;28;20021;-53
2023/02/24 21:12:16;;;;;;;20.60;3.00;;;;;;;5.94;100.00;100899.25;5048640;28;20422;-58
2023/02/24 21:14:42;;;;;;;17.60;2.92;;;;;;;5.84;100.00;100902.88;5048054;28;20215;-55
2023/02/24 21:17:08;;;;;;;16.65;3.17;;;;;;;5.95;100.00;100900.97;5047495;28;20025;-59
2023/02/24 21:19:33;;;;;;;21.63;3.42;;;;;;;5.98;100.00;100905.28;5048379;28;20025;-53
2023/02/24 21:21:58;;;;;;;14.27;3.60;;;;;;;5.90;100.00;100913.25;5048529;28;20020;-53
2023/02/24 21:24:24;;;;;;;18.85;3.33;;;;;;;5.85;100.00;100907.19;5043556;28;20422;-59
2023/02/24 21:26:49;;;;;;;17.85;3.00;;;;;;;5.90;100.00;100905.41;5039253;28;20029;-58
2023/02/24 21:29:15;;;;;;;17.65;2.65;;;;;;;5.91;100.00;100918.47;5047913;28;20670;-58
2023/02/24 21:31:40;;;;;;;17.58;3.05;;;;;;;6.03;100.00;100913.94;5046783;28;20519;-57
2023/02/24 21:34:08;;;;;;;23.77;3.08;;;;;;;5.98;100.00;100908.78;5044577;28;20036;-54
2023/02/24 21:36:34;;;;;;;21.40;3.42;;;;;;;5.96;100.00;100907.91;5038135;28;20029;-56
2023/02/24 21:38:59;;;;;;;12.73;2.75;;;;;;;5.96;100.00;100907.91;5047101;28;20025;-57
2023/02/24 21:41:25;;;;;;;20.55;2.95;;;;;;;5.98;100.00;100908.78;5047482;28;20024;-58
2023/02/24 21:43:53;;;;;;;18.27;2.75;;;;;;;5.97;100.00;100914.91;5048426;28;20028;-58
2023/02/24 21:46:19;;;;;;;25.45;3.83;;;;;;;5.96;100.00;100941.06;5047029;28;20126;-57
2023/02/24 21:48:44;;;;;;;14.43;2.55;;;;;;;5.40;100.00;100987.00;5047939;28;20479;-56
2023/02/24 21:51:11;;;;;;;13.77;2.80;;;;;;;4.89;100.00;100965.69;5037039;28;20041;-54
2023/02/24 21:53:38;;;;;;;8.65;1.80;;;;;;;4.47;100.00;100958.16;5044420;28;20067;-53
2023/02/24 21:56:17;;;;;;;11.20;2.25;;;;;;;4.61;100.00;100945.00;5047394;28;20033;-59
2023/02/24 21:58:45;;;;;;;9.45;2.08;;;;;;;4.55;100.00;100948.53;5047306;28;20597;-54
2023/02/24 22:01:15;;;;;;;13.07;1.73;;;;;;;4.53;100.00;100946.81;5047001;28;20107;-57
2023/02/24 22:03:41;;;;;;;10.90;1.70;;;;;;;4.58;100.00;100941.56;5046831;28;20368;-55
2023/02/24 22:06:09;;;;;;;12.80;2.20;;;;;;;4.70;100.00;100943.22;5045610;28;20135;-55
2023/02/24 22:08:36;;;;;;;10.80;2.17;;;;;;;4.72;100.00;100936.25;5053728;28;20032;-53
2023/02/24 22:11:01;;;;;;;11.55;1.92;;;;;;;4.71;100.00;100940.59;5066893;28;20363;-57
2023/02/24 22:13:27;;;;;;;14.63;2.55;;;;;;;4.76;100.00;100935.34;5047335;28;20496;-57
2023/02/24 22:15:52;;;;;;;19.25;2.05;;;;;;;4.77;100.00;100932.72;5046587;28;20072;-54
2023/02/24 22:18:18;;;;;;;16.02;2.17;;;;;;;4.77;100.00;100944.91;5047535;28;20039;-57
2023/02/24 22:20:43;;;;;;;12.73;2.30;;;;;;;4.78;100.00;100934.44;5043649;28;20028;-54
2023/02/24 22:23:12;;;;;;;18.95;3.45;;;;;;;4.80;100.00;100930.09;5046692;28;20029;-55
2023/02/24 22:25:37;;;;;;;14.18;2.55;;;;;;;4.77;100.00;100924.88;5045257;28;20060;-52
2023/02/24 22:28:02;;;;;;;14.57;2.35;;;;;;;4.79;100.00;100928.34;5047484;28;20135;-56
2023/02/24 22:30:28;;;;;;;14.70;2.35;;;;;;;4.79;100.00;100933.56;5042764;28;20024;-56
2023/02/24 22:32:53;;;;;;;13.30;2.25;;;;;;;4.82;100.00;100935.31;5026358;28;20167;-58
2023/02/24 22:35:18;;;;;;;12.38;2.50;;;;;;;4.88;100.00;100926.53;5027316;28;20048;-54
2023/02/24 22:37:44;;;;;;;15.07;2.03;;;;;;;4.89;100.00;100928.25;5027217;28;20484;-58
2023/02/24 22:40:10;;;;;;;19.52;2.50;;;;;;;4.86;100.00;100928.28;5025832;28;20037;-53
2023/02/24 22:42:35;;;;;;;15.77;2.42;;;;;;;4.70;100.00;100932.78;5044930;28;20025;-56
2023/02/24 22:45:01;;;;;;;17.02;2.70;;;;;;;4.72;100.00;100936.25;5040477;28;20102;-52
2023/02/24 22:47:26;;;;;;;14.93;2.60;;;;;;;4.80;100.00;100937.03;5046151;28;20033;-56
2023/02/24 22:49:51;;;;;;;18.52;2.53;;;;;;;4.77;100.00;100937.94;5046117;28;20636;-60
2023/02/24 22:52:17;;;;;;;18.27;3.42;;;;;;;4.89;100.00;100946.53;5044543;28;20087;-54
2023/02/24 22:54:43;;;;;;;19.20;2.50;;;;;;;5.00;100.00;100942.09;5045677;28;20063;-57
2023/02/24 22:57:08;;;;;;;13.13;2.40;;;;;;;4.96;100.00;100935.16;5045777;28;20025;-55
2023/02/24 22:59:34;;;;;;;20.58;2.10;;;;;;;5.03;100.00;100930.75;5044870;28;20533;-59
2023/02/24 23:01:59;;;;;;;25.83;3.05;;;;;;;4.95;100.00;100938.66;5032978;28;20021;-56
2023/02/24 23:04:27;;;;;;;16.15;2.88;;;;;;;4.97;100.00;100946.47;5031448;28;20059;-56
2023/02/24 23:06:54;;;;;;;10.10;2.20;;;;;;;4.96;100.00;100952.59;5048486;28;20017;-56
2023/02/24 23:09:19;;;;;;;16.77;2.90;;;;;;;4.97;100.00;100941.25;5051170;28;20275;-55
2023/02/24 23:11:45;;;;;;;22.00;2.15;;;;;;;4.94;100.00;100942.16;5049632;28;20032;-55
2023/02/24 23:14:12;;;;;;;13.98;2.42;;;;;;;4.95;100.00;100936.06;5050574;28;20033;-59
2023/02/24 23:16:40;;;;;;;19.58;3.42;;;;;;;4.98;100.00;100938.63;5048667;28;20032;-53
2023/02/24 23:19:09;;;;;;;16.92;2.75;;;;;;;4.97;100.00;100944.72;5050897;28;20017;-55
2023/02/24 23:21:41;;;;;;;20.13;2.53;;;;;;;4.99;100.00;100945.59;5049676;28;20021;-55
2023/02/24 23:24:09;;;;;;;23.60;3.17;;;;;;;5.01;100.00;100949.06;5050115;28;20438;-53
2023/02/24 23:26:39;;;;;;;18.55;2.58;;;;;;;5.04;100.00;100954.25;5049748;28;20017;-54
2023/02/24 23:29:05;;;;;;;22.85;2.80;;;;;;;5.06;100.00;100949.88;5050940;28;20021;-54
2023/02/24 23:31:31;;;;;;;15.27;2.25;;;;;;;5.16;100.00;100955.91;5049208;28;20065;-56
2023/02/24 23:33:56;;;;;;;24.48;2.67;;;;;;;5.20;100.00;100969.78;5050898;28;20416;-53
2023/02/24 23:36:23;;;;;;;17.13;3.03;;;;;;;5.27;100.00;100965.38;5050757;28;20649;-58
2023/02/24 23:38:48;;;;;;;24.88;3.03;;;;;;;5.18;100.00;100972.41;5031081;28;20089;-56
2023/02/24 23:41:13;;;;;;;18.35;2.63;;;;;;;5.30;100.00;100965.34;5030677;28;20063;-52
2023/02/24 23:43:39;;;;;;;9.77;1.63;;;;;;;5.28;100.00;100967.97;5030240;28;20057;-53
2023/02/24 23:46:08;;;;;;;9.88;2.05;;;;;;;5.28;100.00;100965.34;5029702;28;20054;-52
2023/02/24 23:48:33;;;;;;;16.27;2.30;;;;;;;5.35;100.00;100968.75;5029908;28;20040;-55
2023/02/24 23:51:05;;;;;;;6.43;1.88;;;;;;;5.37;100.00;100973.97;5030390;28;20025;-55
2023/02/24 23:53:35;;;;;;;10.38;2.03;;;;;;;5.35;100.00;100976.59;5030611;28;20487;-50
2023/02/24 23:56:07;;;;;;;12.00;1.90;;;;;;;5.32;100.00;100971.41;5049063;28;20086;-55
2023/02/24 23:58:33;;;;;;;11.60;2.47;;;;;;;5.39;100.00;100983.53;5049069;28;20025;-54
